Time;durP1;ratioP1;P1;durP2;ratioP2;P2;SDS_P1;SDS_P2;PMS_P1;PMS_P2;Temp;Humidity;BMP_temperature;BMP_pressure;BME280_temperature;BME280_humidity;BME280_pressure;Samples;Min_cycle;Max_cycle;Signal;HPM_P1;HPM_P2
2022/01/24 00:02:05;;;;;;;12.43;8.33;;;0.80;99.90;;;;;;5054170;28;20664;-74
2022/01/24 00:04:31;;;;;;;11.83;8.47;;;0.80;99.90;;;;;;5053643;28;20203;-74
2022/01/24 00:06:56;;;;;;;12.07;8.83;;;0.80;99.90;;;;;;5054140;28;20203;-75
2022/01/24 00:09:22;;;;;;;11.73;8.37;;;0.80;99.90;;;;;;5054183;28;20175;-74
2022/01/24 00:12:12;;;;;;;12.57;8.43;;;0.70;99.90;;;;;;5053980;28;20171;-74
2022/01/24 00:17:18;;;;;;;10.53;7.77;;;0.50;99.90;;;;;;5054072;28;20763;-73
2022/01/24 00:27:57;;;;;;;12.00;8.13;;;0.40;99.90;;;;;;5053649;28;20296;-74
2022/01/24 00:30:23;;;;;;;12.80;9.03;;;0.30;99.90;;;;;;5053672;28;20262;-74
2022/01/24 00:32:48;;;;;;;12.60;9.40;;;0.40;99.90;;;;;;5053653;28;20273;-74
2022/01/24 00:35:14;;;;;;;12.37;8.77;;;0.30;99.90;;;;;;5052669;28;20213;-74
2022/01/24 00:37:40;;;;;;;12.53;8.27;;;0.30;99.90;;;;;;5053390;28;20182;-74
2022/01/24 00:40:07;;;;;;;12.03;8.53;;;0.20;99.90;;;;;;5053253;28;20199;-74
2022/01/24 00:45:47;;;;;;;12.47;8.40;;;0.00;99.90;;;;;;5052512;28;20207;-74
2022/01/24 00:55:42;;;;;;;11.97;8.37;;;-0.20;99.90;;;;;;5052480;28;20187;-74
2022/01/24 00:58:07;;;;;;;14.40;8.80;;;-0.20;99.90;;;;;;5052891;28;20172;-74
2022/01/24 01:00:33;;;;;;;13.73;9.27;;;-0.30;99.90;;;;;;5053046;28;20185;-74
2022/01/24 01:02:59;;;;;;;13.30;9.13;;;-0.30;99.90;;;;;;5052948;28;20238;-75
2022/01/24 01:05:42;;;;;;;13.17;8.90;;;-0.30;99.90;;;;;;5052173;28;20309;-75
2022/01/24 01:18:48;;;;;;;13.27;9.43;;;-0.30;99.90;;;;;;5052889;28;20198;-74
2022/01/24 01:21:15;;;;;;;14.63;9.37;;;-0.20;99.90;;;;;;5052853;28;20208;-74
2022/01/24 01:23:47;;;;;;;14.37;9.77;;;-0.20;99.90;;;;;;5052709;28;20176;-74
2022/01/24 01:28:50;;;;;;;15.03;9.17;;;-0.10;99.90;;;;;;5052626;28;20167;-74
2022/01/24 01:31:27;;;;;;;13.77;9.80;;;-0.10;99.90;;;;;;5052415;28;20198;-75
2022/01/24 01:34:17;;;;;;;13.10;9.33;;;-0.30;99.90;;;;;;5052321;28;20196;-75
2022/01/24 01:55:44;;;;;;;14.03;9.10;;;-0.80;99.90;;;;;;5051415;28;20614;-75
2022/01/24 01:58:14;;;;;;;12.33;8.73;;;-0.80;99.90;;;;;;5051989;28;20187;-74
2022/01/24 02:00:46;;;;;;;13.87;9.27;;;-0.80;99.90;;;;;;5051483;28;20210;-74
2022/01/24 02:03:11;;;;;;;11.93;8.97;;;-0.80;99.90;;;;;;5051474;28;20170;-75
2022/01/24 02:05:38;;;;;;;14.07;9.27;;;-0.80;99.90;;;;;;5051193;28;20222;-74
2022/01/24 02:08:04;;;;;;;11.63;9.07;;;-0.80;99.90;;;;;;5052050;28;20171;-74
2022/01/24 02:10:32;;;;;;;16.17;9.57;;;-0.80;99.90;;;;;;5052071;28;20237;-75
2022/01/24 02:12:57;;;;;;;14.00;9.43;;;-0.80;99.90;;;;;;5051887;28;20186;-75
2022/01/24 02:15:31;;;;;;;13.83;10.27;;;-0.70;99.90;;;;;;5051189;28;20577;-75
2022/01/24 02:24:05;;;;;;;14.50;10.20;;;-0.70;99.90;;;;;;5051391;28;20186;-75
2022/01/24 02:26:24;;;;;;;14.43;9.67;;;-0.70;99.90;;;;;;5047557;28;20237;-74
2022/01/24 02:31:36;;;;;;;16.27;9.53;;;-0.80;99.90;;;;;;5051148;28;20175;-74
2022/01/24 02:34:04;;;;;;;14.07;9.40;;;-0.80;99.90;;;;;;5050881;28;20278;-75
2022/01/24 02:36:30;;;;;;;12.63;9.10;;;-0.80;99.90;;;;;;5050418;28;20199;-74
2022/01/24 02:49:28;;;;;;;14.53;9.87;;;-0.90;99.90;;;;;;5051025;28;20573;-74
2022/01/24 02:52:10;;;;;;;13.47;8.70;;;-0.90;99.90;;;;;;5050837;28;20656;-74
2022/01/24 02:54:37;;;;;;;14.33;9.37;;;-1.10;99.90;;;;;;5050275;28;20266;-75
2022/01/24 02:57:04;;;;;;;12.17;8.70;;;-1.00;99.90;;;;;;5051027;28;20171;-74
2022/01/24 02:59:30;;;;;;;14.07;9.23;;;-1.00;99.90;;;;;;5050835;28;20182;-74
2022/01/24 03:01:56;;;;;;;13.80;9.57;;;-1.00;99.90;;;;;;5051195;28;20258;-74
2022/01/24 03:04:22;;;;;;;14.00;9.37;;;-1.00;99.90;;;;;;5054449;28;20230;-74
2022/01/24 03:06:48;;;;;;;14.67;9.63;;;-1.00;99.90;;;;;;5054218;28;20202;-74
2022/01/24 03:09:14;;;;;;;14.30;9.83;;;-1.00;99.90;;;;;;5054584;28;20175;-74
2022/01/24 03:12:00;;;;;;;13.60;9.47;;;-1.00;99.90;;;;;;5054821;28;20185;-74
2022/01/24 03:14:28;;;;;;;14.50;9.13;;;-1.10;99.90;;;;;;5054258;28;20201;-75
2022/01/24 03:16:54;;;;;;;12.00;9.27;;;-1.20;99.90;;;;;;5054369;28;20191;-74
2022/01/24 03:19:20;;;;;;;14.13;8.73;;;-1.20;99.90;;;;;;5054473;28;20206;-74
2022/01/24 03:21:46;;;;;;;14.47;9.43;;;-1.30;99.90;;;;;;5036430;28;20213;-74
2022/01/24 03:24:13;;;;;;;14.53;9.30;;;-1.30;99.90;;;;;;5054424;28;20556;-74
2022/01/24 03:26:39;;;;;;;13.30;9.70;;;-1.30;99.90;;;;;;5053861;28;20191;-74
2022/01/24 03:29:05;;;;;;;12.63;8.80;;;-1.30;99.90;;;;;;5054357;28;20182;-74
2022/01/24 03:31:31;;;;;;;13.63;8.90;;;-1.30;99.90;;;;;;5054149;28;20175;-74
2022/01/24 03:33:57;;;;;;;14.77;8.67;;;-1.30;99.90;;;;;;5054026;28;20191;-74
2022/01/24 03:36:22;;;;;;;13.63;9.00;;;-1.40;99.90;;;;;;5053454;28;20221;-74
2022/01/24 03:38:48;;;;;;;14.63;9.20;;;-1.40;99.90;;;;;;5054310;28;20175;-74
2022/01/24 03:41:14;;;;;;;16.47;9.93;;;-1.30;99.90;;;;;;5054031;28;20175;-74
2022/01/24 03:43:40;;;;;;;17.90;10.17;;;-1.30;99.90;;;;;;5053956;28;20176;-74
2022/01/24 03:46:47;;;;;;;12.23;9.03;;;-1.30;99.90;;;;;;5053542;28;20215;-74
2022/01/24 03:49:08;;;;;;;14.07;8.97;;;-1.40;99.90;;;;;;5050754;28;20600;-74
2022/01/24 03:51:34;;;;;;;13.10;9.30;;;-1.40;99.90;;;;;;5054046;28;20183;-75
2022/01/24 03:54:01;;;;;;;13.37;8.80;;;-1.40;99.90;;;;;;5053939;28;20226;-75
2022/01/24 03:56:27;;;;;;;13.73;9.43;;;-1.30;99.90;;;;;;5053338;28;20206;-75
2022/01/24 03:58:52;;;;;;;14.50;9.23;;;-1.40;99.90;;;;;;5053836;28;20625;-76
2022/01/24 04:01:18;;;;;;;12.17;8.77;;;-1.30;99.90;;;;;;5053635;28;20175;-74
2022/01/24 04:03:43;;;;;;;13.40;10.00;;;-1.40;99.90;;;;;;5053848;28;20182;-75
2022/01/24 04:06:09;;;;;;;14.50;9.60;;;-1.30;99.90;;;;;;5035144;28;20642;-75
2022/01/24 04:08:35;;;;;;;13.97;9.23;;;-1.30;99.90;;;;;;5053616;28;20171;-75
2022/01/24 04:11:01;;;;;;;13.10;9.13;;;-1.30;99.90;;;;;;5053615;28;20175;-75
2022/01/24 04:13:37;;;;;;;16.10;9.47;;;-1.40;99.90;;;;;;5052846;28;20242;-74
2022/01/24 04:18:47;;;;;;;15.57;10.13;;;-1.40;99.90;;;;;;5053290;28;20171;-75
2022/01/24 04:23:58;;;;;;;15.60;10.00;;;-1.40;99.90;;;;;;5053157;28;20537;-75
2022/01/24 04:26:24;;;;;;;15.33;10.20;;;-1.40;99.90;;;;;;5052634;28;20207;-75
2022/01/24 04:28:50;;;;;;;18.30;10.43;;;-1.40;99.90;;;;;;5052890;28;20177;-75
2022/01/24 04:31:16;;;;;;;15.87;9.90;;;-1.40;99.90;;;;;;5053075;28;20267;-75
2022/01/24 04:33:42;;;;;;;15.23;9.97;;;-1.40;99.90;;;;;;5052806;28;20648;-74
2022/01/24 04:36:08;;;;;;;19.30;10.20;;;-1.40;99.90;;;;;;5052470;28;20241;-75
2022/01/24 04:38:33;;;;;;;20.67;11.03;;;-1.40;99.90;;;;;;5052920;28;20425;-74
2022/01/24 04:41:04;;;;;;;16.10;10.07;;;-1.40;99.90;;;;;;5052821;28;20274;-76
2022/01/24 04:43:50;;;;;;;15.13;10.00;;;-1.40;99.90;;;;;;5053315;28;20218;-74
2022/01/24 04:46:49;;;;;;;15.80;9.80;;;-1.40;99.90;;;;;;5053206;28;20268;-74
2022/01/24 04:56:39;;;;;;;13.27;9.10;;;-1.60;99.90;;;;;;5052330;28;20191;-75
2022/01/24 04:59:06;;;;;;;13.67;9.90;;;-1.70;99.90;;;;;;5052643;28;20560;-75
2022/01/24 05:01:32;;;;;;;16.67;8.93;;;-1.70;99.90;;;;;;5052969;28;20198;-75
2022/01/24 05:03:58;;;;;;;16.53;10.07;;;-1.70;99.90;;;;;;5052707;28;20616;-75
2022/01/24 05:06:23;;;;;;;17.17;9.80;;;-1.70;99.90;;;;;;5052427;28;20214;-75
2022/01/24 05:08:49;;;;;;;14.90;9.43;;;-1.70;99.90;;;;;;5052948;28;20233;-75
2022/01/24 05:11:20;;;;;;;15.60;10.10;;;-1.80;99.90;;;;;;5052870;28;20164;-74
2022/01/24 05:24:37;;;;;;;13.47;9.50;;;-1.80;99.90;;;;;;5031614;28;20207;-75
2022/01/24 05:27:03;;;;;;;19.43;11.30;;;-1.80;99.90;;;;;;5033542;28;20220;-75
2022/01/24 05:29:29;;;;;;;17.47;9.73;;;-1.80;99.90;;;;;;5032645;28;20702;-75
2022/01/24 05:31:56;;;;;;;15.17;9.53;;;-1.80;99.90;;;;;;5032575;28;20247;-76
2022/01/24 05:34:24;;;;;;;13.93;9.80;;;-1.80;99.90;;;;;;5031893;28;20241;-76
2022/01/24 05:36:50;;;;;;;14.73;9.47;;;-1.80;99.90;;;;;;5032412;28;20204;-75
2022/01/24 05:39:16;;;;;;;16.03;9.53;;;-2.00;99.90;;;;;;5032273;28;20180;-75
2022/01/24 05:41:41;;;;;;;14.77;9.40;;;-1.90;99.90;;;;;;5032550;28;20697;-76
2022/01/24 05:44:08;;;;;;;17.23;10.70;;;-1.90;99.90;;;;;;5032336;28;20176;-75
2022/01/24 05:46:34;;;;;;;15.07;9.40;;;-1.90;99.90;;;;;;5031846;28;20278;-75
2022/01/24 05:49:01;;;;;;;14.10;9.43;;;-2.00;99.90;;;;;;5032255;28;20195;-75
2022/01/24 05:51:29;;;;;;;15.37;9.00;;;-2.00;99.90;;;;;;5032221;28;20180;-76
2022/01/24 05:53:55;;;;;;;13.43;9.13;;;-2.10;99.90;;;;;;5032129;28;20199;-78
2022/01/24 05:56:21;;;;;;;14.03;10.20;;;-2.00;99.90;;;;;;5031801;28;20192;-76
2022/01/24 05:58:47;;;;;;;16.23;10.67;;;-2.10;99.90;;;;;;5041182;28;20644;-75
2022/01/24 06:01:12;;;;;;;15.93;10.87;;;-2.00;99.90;;;;;;5050896;28;20168;-75
2022/01/24 06:03:38;;;;;;;19.90;10.93;;;-2.00;99.90;;;;;;5050855;28;20175;-75
2022/01/24 06:06:04;;;;;;;14.37;10.20;;;-2.00;99.90;;;;;;5050352;28;20221;-77
2022/01/24 06:08:30;;;;;;;15.10;9.47;;;-2.00;99.90;;;;;;5051433;28;20190;-76
2022/01/24 06:10:58;;;;;;;16.10;10.00;;;-2.10;99.90;;;;;;5050003;28;20171;-75
2022/01/24 06:13:25;;;;;;;14.83;9.63;;;-2.10;99.90;;;;;;5051244;28;20179;-76
2022/01/24 06:15:51;;;;;;;14.63;10.13;;;-2.10;99.90;;;;;;5050934;28;20203;-75
2022/01/24 06:18:16;;;;;;;15.23;9.40;;;-2.00;99.90;;;;;;5051390;28;20667;-76
2022/01/24 06:20:43;;;;;;;13.07;9.37;;;-2.00;99.90;;;;;;5051456;28;20183;-75
2022/01/24 06:23:13;;;;;;;15.37;9.90;;;-2.00;99.90;;;;;;5051416;28;20179;-76
2022/01/24 06:25:38;;;;;;;18.40;11.03;;;-2.00;99.90;;;;;;5050903;28;20305;-76
2022/01/24 06:28:04;;;;;;;14.60;9.90;;;-2.00;99.90;;;;;;5051420;28;20266;-76
2022/01/24 06:30:29;;;;;;;14.20;9.40;;;-1.90;99.90;;;;;;5051467;28;20212;-76
2022/01/24 06:32:55;;;;;;;13.37;9.40;;;-2.00;99.90;;;;;;5051199;28;20762;-76
2022/01/24 06:35:20;;;;;;;13.27;9.53;;;-1.90;99.90;;;;;;5050633;28;20202;-76
2022/01/24 06:37:46;;;;;;;15.00;9.73;;;-1.80;99.90;;;;;;5051238;28;20652;-80
2022/01/24 06:40:12;;;;;;;13.77;10.30;;;-1.70;99.90;;;;;;5052915;28;20230;-77
2022/01/24 06:42:38;;;;;;;17.20;11.27;;;-1.50;99.90;;;;;;5053902;28;20187;-78
2022/01/24 06:45:04;;;;;;;15.57;10.70;;;-1.30;99.90;;;;;;5052452;28;20306;-77
2022/01/24 06:47:30;;;;;;;14.90;9.80;;;-1.80;99.90;;;;;;5051203;28;20639;-76
2022/01/24 06:49:56;;;;;;;17.40;10.93;;;-1.40;99.90;;;;;;5051490;28;20191;-75
2022/01/24 06:52:21;;;;;;;18.37;12.67;;;-1.40;99.90;;;;;;5050388;28;20210;-75
2022/01/24 06:54:47;;;;;;;19.73;12.27;;;-1.40;99.90;;;;;;5050189;28;20541;-76
2022/01/24 06:57:15;;;;;;;19.77;12.87;;;-1.30;99.90;;;;;;5051310;28;20179;-75
2022/01/24 06:59:42;;;;;;;18.23;14.47;;;-1.10;99.90;;;;;;5050988;28;20187;-76
2022/01/24 07:02:09;;;;;;;18.43;13.13;;;-1.10;99.90;;;;;;5050961;28;20240;-76
2022/01/24 07:04:36;;;;;;;18.77;14.13;;;-1.00;99.90;;;;;;5050452;28;20627;-77
2022/01/24 07:07:03;;;;;;;19.07;11.97;;;-0.90;99.90;;;;;;5051191;28;20207;-76
2022/01/24 07:09:28;;;;;;;16.37;12.43;;;-0.90;99.90;;;;;;5051219;28;20175;-77
2022/01/24 07:11:54;;;;;;;17.77;11.50;;;-0.90;99.90;;;;;;5051001;28;20655;-76
2022/01/24 07:14:20;;;;;;;17.53;11.83;;;-1.10;99.90;;;;;;5050741;28;20556;-77
2022/01/24 07:19:21;;;;;;;20.97;12.30;;;-0.80;99.90;;;;;;5050877;28;20174;-76
2022/01/24 07:21:46;;;;;;;20.83;12.80;;;-0.70;99.90;;;;;;5051209;28;20245;-76
2022/01/24 07:24:12;;;;;;;19.53;12.30;;;-0.80;99.90;;;;;;5051256;28;20648;-77
2022/01/24 07:26:38;;;;;;;15.63;11.37;;;-0.60;99.90;;;;;;5050441;28;20574;-77
2022/01/24 07:29:03;;;;;;;18.40;11.67;;;-0.60;99.90;;;;;;5050754;28;20218;-76
2022/01/24 07:31:29;;;;;;;17.40;10.53;;;-0.50;99.90;;;;;;5050863;28;20186;-76
2022/01/24 07:33:55;;;;;;;19.87;12.70;;;-0.80;99.90;;;;;;5050589;28;20194;-76
2022/01/24 07:36:22;;;;;;;18.10;11.50;;;-0.80;99.90;;;;;;5050276;28;20195;-76
2022/01/24 07:38:47;;;;;;;16.77;11.93;;;-0.80;99.90;;;;;;5050989;28;20198;-76
2022/01/24 07:41:16;;;;;;;16.97;11.73;;;-0.90;99.90;;;;;;5050667;28;20644;-76
2022/01/24 07:43:42;;;;;;;20.03;11.37;;;-0.60;99.90;;;;;;5050688;28;20254;-76
2022/01/24 07:46:07;;;;;;;19.70;11.87;;;-0.50;99.90;;;;;;5049916;28;20719;-76
2022/01/24 07:48:33;;;;;;;18.17;11.43;;;-0.60;99.90;;;;;;5051781;28;20179;-76
2022/01/24 07:50:58;;;;;;;18.03;13.23;;;-0.50;99.90;;;;;;5054510;28;20175;-76
2022/01/24 07:53:24;;;;;;;20.50;12.40;;;-0.50;99.90;;;;;;5054419;28;20167;-76
2022/01/24 07:55:51;;;;;;;18.17;12.77;;;-0.50;99.90;;;;;;5053765;28;20237;-76
2022/01/24 07:58:17;;;;;;;21.30;13.23;;;-0.30;99.90;;;;;;5054342;28;20171;-76
2022/01/24 08:00:42;;;;;;;18.80;13.10;;;-0.20;99.90;;;;;;5054169;28;20597;-75
2022/01/24 08:03:08;;;;;;;20.57;13.37;;;-0.10;99.90;;;;;;5053964;28;20555;-76
2022/01/24 08:05:35;;;;;;;22.10;13.40;;;-0.10;99.90;;;;;;5053427;28;20222;-76
2022/01/24 08:08:01;;;;;;;18.03;13.00;;;0.00;99.90;;;;;;5053800;28;20206;-76
2022/01/24 08:10:27;;;;;;;17.40;12.10;;;0.00;99.90;;;;;;5053712;28;20178;-75
2022/01/24 08:12:52;;;;;;;18.50;13.17;;;-0.20;99.90;;;;;;5053934;28;20179;-75
2022/01/24 08:15:18;;;;;;;19.63;12.87;;;0.00;99.90;;;;;;5053255;28;20187;-76
2022/01/24 08:17:45;;;;;;;21.47;12.43;;;0.20;99.90;;;;;;5053673;28;20206;-76
2022/01/24 08:20:12;;;;;;;19.50;13.07;;;0.20;99.90;;;;;;5053622;28;20617;-75
2022/01/24 08:22:38;;;;;;;19.83;11.97;;;0.10;99.90;;;;;;5053739;28;20175;-75
2022/01/24 08:25:05;;;;;;;16.10;12.33;;;0.20;99.90;;;;;;5053056;28;20214;-75
2022/01/24 08:27:31;;;;;;;20.60;13.67;;;0.40;99.90;;;;;;5053560;28;20221;-76
2022/01/24 08:29:57;;;;;;;19.13;13.47;;;0.40;99.90;;;;;;5053524;28;20183;-75
2022/01/24 08:32:22;;;;;;;19.50;12.80;;;0.50;99.90;;;;;;5053473;28;20187;-75
2022/01/24 08:34:48;;;;;;;17.90;12.47;;;0.50;99.90;;;;;;5053053;28;20656;-75
2022/01/24 08:37:13;;;;;;;18.87;12.67;;;0.60;99.90;;;;;;5053568;28;20608;-75
2022/01/24 08:39:39;;;;;;;18.63;12.00;;;0.60;99.90;;;;;;5053549;28;20309;-76
2022/01/24 08:42:19;;;;;;;20.77;12.53;;;0.80;99.90;;;;;;5053486;28;20179;-76
2022/01/24 08:47:30;;;;;;;18.67;12.33;;;1.20;99.90;;;;;;5053321;28;20624;-76
2022/01/24 08:49:58;;;;;;;20.97;12.03;;;1.40;99.90;;;;;;5053119;28;20168;-76
2022/01/24 08:52:27;;;;;;;16.80;10.93;;;2.00;85.50;;;;;;5053199;28;20187;-76
2022/01/24 08:54:53;;;;;;;16.77;11.47;;;3.70;1.00;;;;;;5052777;28;20175;-75
2022/01/24 08:57:25;;;;;;;15.03;9.73;;;5.90;1.00;;;;;;5053422;28;20552;-75
2022/01/24 08:59:51;;;;;;;11.50;9.37;;;7.30;99.90;;;;;;5052891;28;20187;-76
2022/01/24 09:02:17;;;;;;;13.87;8.97;;;7.80;1.00;;;;;;5053268;28;20539;-76
2022/01/24 09:04:42;;;;;;;10.23;8.63;;;8.10;1.00;;;;;;5052078;28;20703;-76
2022/01/24 09:07:09;;;;;;;12.00;8.63;;;8.40;99.90;;;;;;5052920;28;20175;-76
2022/01/24 09:09:35;;;;;;;11.77;9.90;;;9.10;99.90;;;;;;5052631;28;20179;-75
2022/01/24 09:12:04;;;;;;;10.77;9.67;;;9.20;20.80;;;;;;5052944;28;20183;-76
2022/01/24 09:14:29;;;;;;;11.47;10.27;;;9.60;1.00;;;;;;5052373;28;20179;-75
2022/01/24 09:16:55;;;;;;;9.37;8.40;;;9.60;1.00;;;;;;5052534;28;20202;-75
2022/01/24 09:19:21;;;;;;;11.17;9.37;;;10.40;1.00;;;;;;5052672;28;20179;-76
2022/01/24 09:21:46;;;;;;;10.27;9.27;;;10.30;1.00;;;;;;5052516;28;20551;-76
2022/01/24 09:24:12;;;;;;;10.07;9.07;;;10.50;1.00;;;;;;5052716;28;20538;-76
2022/01/24 09:26:38;;;;;;;11.93;9.47;;;10.20;1.00;;;;;;5052189;28;20195;-76
2022/01/24 09:29:04;;;;;;;13.53;9.87;;;10.00;1.00;;;;;;5052436;28;20387;-76
2022/01/24 09:31:29;;;;;;;10.47;9.47;;;10.20;1.00;;;;;;5052316;28;20552;-76
2022/01/24 09:33:56;;;;;;;9.00;8.20;;;10.20;1.00;;;;;;5052158;28;20187;-76
2022/01/24 09:36:22;;;;;;;9.00;8.20;;;10.60;1.00;;;;;;5051695;28;20249;-76
2022/01/24 09:38:48;;;;;;;9.60;8.57;;;10.70;1.00;;;;;;5052024;28;20205;-76
2022/01/24 09:41:14;;;;;;;8.57;7.77;;;9.90;1.00;;;;;;5052280;28;20217;-76
2022/01/24 09:43:44;;;;;;;8.60;7.80;;;9.50;1.00;;;;;;5052260;28;20182;-76
2022/01/24 09:46:11;;;;;;;8.80;8.00;;;9.60;1.00;;;;;;5051369;28;20214;-76
2022/01/24 09:48:39;;;;;;;7.97;7.20;;;9.60;1.00;;;;;;5052431;28;20182;-76
2022/01/24 09:51:05;;;;;;;7.97;7.17;;;9.80;1.00;;;;;;5051841;28;20272;-76
2022/01/24 09:53:32;;;;;;;7.60;6.90;;;10.60;1.00;;;;;;5051752;28;20179;-76
2022/01/24 09:56:03;;;;;;;7.50;6.80;;;11.10;1.00;;;;;;5051626;28;20199;-76
2022/01/24 09:58:35;;;;;;;11.37;9.83;;;11.60;1.00;;;;;;5051839;28;20260;-75
2022/01/24 10:01:03;;;;;;;8.10;6.57;;;10.30;1.00;;;;;;5051741;28;20190;-76
2022/01/24 10:03:28;;;;;;;8.20;7.00;;;10.60;1.00;;;;;;5051674;28;20185;-76
2022/01/24 10:05:56;;;;;;;7.00;6.30;;;10.30;1.00;;;;;;5050798;28;20301;-76
2022/01/24 10:08:24;;;;;;;7.67;6.70;;;11.00;1.00;;;;;;5051680;28;20199;-76
2022/01/24 10:10:55;;;;;;;7.13;6.13;;;10.30;1.00;;;;;;5051225;28;20183;-76
2022/01/24 10:16:29;;;;;;;7.27;6.13;;;11.70;1.00;;;;;;5051054;28;20244;-76
2022/01/24 10:19:06;;;;;;;7.20;6.50;;;11.10;1.00;;;;;;5051716;28;20183;-76
2022/01/24 10:21:50;;;;;;;9.00;6.23;;;10.20;1.00;;;;;;5085671;22;20221;-83
2022/01/24 10:24:42;;;;;;;6.20;5.70;;;9.90;1.00;;;;;;5063738;28;20672;-83
2022/01/24 10:27:23;;;;;;;7.10;6.40;;;10.70;1.00;;;;;;5043369;28;20176;-82
2022/01/24 10:29:55;;;;;;;6.50;5.90;;;9.70;1.00;;;;;;5040424;28;20567;-81
2022/01/24 10:32:39;;;;;;;6.37;5.73;;;8.60;1.00;;;;;;5043580;28;20180;-82
2022/01/24 10:35:26;;;;;;;6.27;5.67;;;9.10;1.00;;;;;;5041123;28;20200;-82
2022/01/24 10:38:38;;;;;;;7.73;5.70;;;9.40;1.00;;;;;;5042750;28;20206;-80
2022/01/24 10:41:19;;;;;;;6.47;5.80;;;9.60;1.00;;;;;;5037491;28;20186;-80
2022/01/24 10:43:47;;;;;;;6.27;5.60;;;9.20;1.00;;;;;;5036228;28;20186;-82
2022/01/24 10:46:13;;;;;;;6.27;5.57;;;9.70;1.00;;;;;;5035045;28;20536;-79
2022/01/24 10:48:42;;;;;;;5.90;5.30;;;9.70;1.00;;;;;;5035406;28;20172;-81
2022/01/24 10:51:08;;;;;;;8.17;5.40;;;8.00;1.00;;;;;;5034926;28;20604;-80
2022/01/24 10:53:45;;;;;;;5.67;5.17;;;7.60;97.70;;;;;;5034976;28;20168;-84
2022/01/24 10:56:39;;;;;;;6.00;5.40;;;7.50;99.90;;;;;;5033486;28;20230;-81
2022/01/24 10:59:16;;;;;;;6.17;4.80;;;6.70;1.00;;;;;;5035806;28;20172;-80
2022/01/24 11:01:51;;;;;;;8.37;5.47;;;8.10;99.90;;;;;;5036549;28;20191;-80
2022/01/24 11:04:18;;;;;;;7.47;4.83;;;8.30;79.20;;;;;;5034330;28;20182;-83
2022/01/24 11:06:48;;;;;;;5.37;4.80;;;8.40;99.90;;;;;;5036577;28;20200;-81
2022/01/24 11:09:26;;;;;;;6.13;4.53;;;8.80;99.90;;;;;;5035161;28;20745;-82
2022/01/24 11:12:07;;;;;;;6.53;4.43;;;8.80;1.00;;;;;;5035305;28;20183;-80
2022/01/24 11:14:33;;;;;;;4.80;4.30;;;8.10;1.00;;;;;;5035007;28;20179;-79
2022/01/24 11:17:00;;;;;;;6.30;4.60;;;8.20;99.90;;;;;;5037807;28;20865;-82
2022/01/24 11:21:58;;;;;;;4.67;4.27;;;9.40;1.00;;;;;;5037099;28;20192;-79
2022/01/24 11:24:40;;;;;;;4.93;4.20;;;10.90;1.00;;;;;;5036506;28;20203;-81
2022/01/24 11:27:06;;;;;;;5.53;4.40;;;10.40;1.00;;;;;;5040238;28;20214;-80
2022/01/24 11:29:33;;;;;;;4.60;4.20;;;12.40;1.00;;;;;;5041190;28;20179;-80
2022/01/24 11:32:08;;;;;;;5.63;4.17;;;13.00;1.00;;;;;;5041466;28;20561;-79
2022/01/24 11:34:37;;;;;;;4.47;4.07;;;13.60;1.00;;;;;;5039036;28;20456;-80
2022/01/24 11:37:04;;;;;;;4.33;3.93;;;13.60;1.00;;;;;;5039389;28;20219;-78
2022/01/24 11:39:30;;;;;;;5.63;3.70;;;12.90;1.00;;;;;;5039505;28;20203;-79
2022/01/24 11:41:57;;;;;;;5.83;3.77;;;12.10;1.00;;;;;;5041052;28;20176;-79
2022/01/24 11:44:23;;;;;;;3.87;3.47;;;13.60;1.00;;;;;;5039781;28;20183;-80
2022/01/24 11:46:55;;;;;;;5.03;3.33;;;12.70;1.00;;;;;;5040590;28;20199;-79
2022/01/24 11:49:36;;;;;;;4.13;3.73;;;13.30;1.00;;;;;;5039697;28;20279;-78
2022/01/24 11:52:11;;;;;;;4.07;3.10;;;12.90;1.00;;;;;;5040058;28;20258;-79
2022/01/24 11:57:35;;;;;;;4.67;3.43;;;12.30;1.00;;;;;;5040530;28;20551;-79
2022/01/24 12:00:06;;;;;;;4.00;3.20;;;13.00;1.00;;;;;;5039994;28;20554;-81
2022/01/24 12:02:43;;;;;;;6.40;3.27;;;13.10;1.00;;;;;;5040064;28;20191;-79
2022/01/24 12:05:10;;;;;;;5.27;3.47;;;13.00;1.00;;;;;;5038569;28;20223;-80
2022/01/24 12:07:45;;;;;;;4.20;3.30;;;11.90;1.00;;;;;;5040334;28;20218;-81
2022/01/24 12:10:37;;;;;;;3.90;3.50;;;12.80;1.00;;;;;;5039443;28;20175;-78
2022/01/24 12:13:13;;;;;;;4.27;3.30;;;13.30;1.00;;;;;;5030196;28;20196;-81
2022/01/24 12:15:38;;;;;;;4.63;3.40;;;12.20;1.00;;;;;;5038933;28;20226;-82
2022/01/24 12:18:12;;;;;;;6.30;3.17;;;11.70;1.00;;;;;;5038660;28;20544;-81
2022/01/24 12:20:37;;;;;;;3.53;3.00;;;12.50;1.00;;;;;;5040366;28;20732;-78
2022/01/24 12:23:19;;;;;;;3.60;3.30;;;13.30;1.00;;;;;;5042012;28;20222;-79
2022/01/24 12:25:54;;;;;;;4.67;3.53;;;14.50;1.00;;;;;;5039698;28;20223;-79
2022/01/24 12:28:25;;;;;;;3.83;3.27;;;14.10;1.00;;;;;;5041736;28;20233;-79
2022/01/24 12:31:01;;;;;;;5.40;4.00;;;15.20;1.00;;;;;;5039657;28;20575;-81
2022/01/24 12:33:36;;;;;;;4.37;3.40;;;15.10;1.00;;;;;;5038011;28;20195;-79
2022/01/24 12:36:04;;;;;;;4.23;3.20;;;14.50;1.00;;;;;;5039554;28;20195;-80
2022/01/24 12:38:46;;;;;;;4.50;3.40;;;15.00;1.00;;;;;;5040705;28;20176;-79
2022/01/24 12:41:28;;;;;;;4.13;3.03;;;15.70;1.00;;;;;;5041460;28;20180;-80
2022/01/24 12:46:18;;;;;;;4.13;3.03;;;15.60;1.00;;;;;;5039758;28;20202;-81
2022/01/24 12:46:44;;;;;;;3.77;3.43;;;15.90;1.00;;;;;;5033434;28;20218;-80
2022/01/24 12:49:10;;;;;;;3.40;3.10;;;15.10;1.00;;;;;;5038093;28;20172;-79
2022/01/24 12:51:37;;;;;;;3.73;3.30;;;15.50;1.00;;;;;;5039140;28;20691;-80
2022/01/24 12:54:04;;;;;;;3.30;2.67;;;15.60;1.00;;;;;;5040036;28;20187;-77
2022/01/24 12:56:33;;;;;;;7.00;3.70;;;15.00;1.00;;;;;;5042101;28;20237;-79
2022/01/24 12:58:59;;;;;;;4.20;3.03;;;15.30;1.00;;;;;;5041391;28;20194;-79
2022/01/24 13:01:33;;;;;;;3.33;3.03;;;15.50;1.00;;;;;;5038282;28;20176;-78
2022/01/24 13:04:01;;;;;;;4.30;3.60;;;13.60;1.00;;;;;;5039770;28;20645;-78
2022/01/24 13:06:29;;;;;;;4.27;3.30;;;14.00;1.00;;;;;;5039803;28;20750;-79
2022/01/24 13:08:59;;;;;;;5.30;3.50;;;14.50;1.00;;;;;;5039486;28;20176;-77
2022/01/24 13:11:29;;;;;;;4.57;3.37;;;15.60;1.00;;;;;;5036821;28;20195;-78
2022/01/24 13:14:08;;;;;;;3.87;3.33;;;15.70;1.00;;;;;;5021038;28;20221;-79
2022/01/24 13:25:30;;;;;;;5.00;3.47;;;15.10;1.00;;;;;;5038698;28;20227;-79
2022/01/24 13:27:58;;;;;;;4.27;3.27;;;14.60;1.00;;;;;;5040490;28;20707;-79
2022/01/24 13:30:38;;;;;;;4.50;3.40;;;14.30;1.00;;;;;;5039383;28;20176;-78
2022/01/24 13:33:09;;;;;;;6.63;3.17;;;13.10;1.00;;;;;;5035293;28;20184;-78
2022/01/24 13:35:41;;;;;;;3.87;3.30;;;13.80;1.00;;;;;;5034420;28;20267;-79
2022/01/24 13:38:06;;;;;;;6.00;3.60;;;14.00;1.00;;;;;;5032056;28;20676;-78
2022/01/24 13:40:35;;;;;;;5.20;3.43;;;14.20;1.00;;;;;;5034848;28;20164;-77
2022/01/24 13:43:02;;;;;;;7.43;3.70;;;14.00;1.00;;;;;;5034108;28;20176;-77
2022/01/24 13:45:36;;;;;;;4.83;3.37;;;12.80;1.00;;;;;;5033583;28;20592;-79
2022/01/24 13:48:04;;;;;;;6.43;3.57;;;13.20;1.00;;;;;;5035350;28;20176;-79
2022/01/24 13:50:30;;;;;;;6.47;3.87;;;13.20;1.00;;;;;;5036230;28;20560;-78
2022/01/24 13:52:56;;;;;;;5.87;3.70;;;14.30;1.00;;;;;;5037151;28;20208;-79
2022/01/24 13:55:23;;;;;;;4.93;3.47;;;15.10;1.00;;;;;;5043440;28;20207;-78
2022/01/24 13:57:51;;;;;;;4.67;3.30;;;14.70;1.00;;;;;;5044847;28;20329;-78
2022/01/24 14:00:24;;;;;;;3.87;3.03;;;14.50;1.00;;;;;;5045222;28;20174;-79
2022/01/24 14:03:03;;;;;;;6.63;3.70;;;13.60;1.00;;;;;;5045160;28;20179;-78
2022/01/24 14:05:28;;;;;;;7.07;3.50;;;12.70;1.00;;;;;;5035933;28;20285;-78
2022/01/24 14:07:54;;;;;;;5.07;3.80;;;13.50;1.00;;;;;;5037676;28;20779;-78
2022/01/24 14:10:19;;;;;;;7.70;3.60;;;13.20;1.00;;;;;;5035448;28;20187;-79
2022/01/24 14:12:57;;;;;;;4.00;3.60;;;12.90;1.00;;;;;;5038012;28;20256;-80
2022/01/24 14:15:34;;;;;;;6.30;3.57;;;13.30;1.00;;;;;;5037224;28;20273;-78
2022/01/24 14:18:24;;;;;;;6.00;3.43;;;13.90;1.00;;;;;;5038618;28;20372;-80
2022/01/24 14:20:53;;;;;;;6.83;3.57;;;13.30;1.00;;;;;;5038166;28;20187;-78
2022/01/24 14:23:22;;;;;;;6.30;4.10;;;12.50;1.00;;;;;;5040772;28;20586;-79
2022/01/24 14:25:48;;;;;;;6.93;4.10;;;12.70;1.00;;;;;;5037851;28;20219;-80
2022/01/24 14:28:14;;;;;;;7.13;4.27;;;12.40;1.00;;;;;;5036196;28;20555;-81
2022/01/24 14:30:44;;;;;;;6.07;4.03;;;10.50;1.00;;;;;;5037213;28;20222;-82
2022/01/24 14:33:20;;;;;;;5.70;4.00;;;9.90;1.00;;;;;;5036908;28;20195;-80
2022/01/24 14:36:01;;;;;;;5.97;4.23;;;9.90;1.00;;;;;;5039435;28;20257;-80
2022/01/24 14:38:31;;;;;;;8.03;4.53;;;9.60;1.00;;;;;;5039532;28;20176;-80
2022/01/24 14:41:01;;;;;;;6.17;4.13;;;9.10;1.00;;;;;;5039498;28;20206;-80
2022/01/24 14:46:19;;;;;;;5.67;4.30;;;8.80;1.00;;;;;;5039354;28;20311;-79
2022/01/24 14:48:47;;;;;;;5.43;3.67;;;9.00;1.00;;;;;;5038921;28;20551;-79
2022/01/24 14:51:14;;;;;;;6.13;4.17;;;8.70;1.00;;;;;;5039375;28;20267;-79
2022/01/24 14:53:39;;;;;;;7.30;4.60;;;8.90;1.00;;;;;;5040262;28;20184;-81
2022/01/24 14:56:06;;;;;;;8.50;5.33;;;9.90;1.00;;;;;;5038542;28;20294;-81
2022/01/24 14:58:32;;;;;;;8.13;5.00;;;8.80;1.00;;;;;;5046990;28;20243;-82